Time;durP1;ratioP1;P1;durP2;ratioP2;P2;SDS_P1;SDS_P2;PMS_P1;PMS_P2;Temp;Humidity;BMP_temperature;BMP_pressure;BME280_temperature;BME280_humidity;BME280_pressure;Samples;Min_cycle;Max_cycle;Signal;HPM_P1;HPM_P2
2022/03/11 00:00:04;;;;;;;13.10;1.27;;;21.90;99.90;;;;;;5081936;28;20049;-62
2022/03/11 00:02:34;;;;;;;10.15;1.80;;;21.90;99.90;;;;;;5081044;28;20024;-61
2022/03/11 00:05:01;;;;;;;5.57;1.45;;;22.10;99.90;;;;;;5081498;28;20092;-62
2022/03/11 00:07:28;;;;;;;12.18;1.60;;;22.20;99.90;;;;;;5078856;28;20013;-62
2022/03/11 00:09:55;;;;;;;9.05;1.13;;;22.40;99.90;;;;;;5079547;28;20072;-61
2022/03/11 00:12:24;;;;;;;11.50;1.20;;;22.50;99.90;;;;;;5084037;28;20032;-62
2022/03/11 00:14:52;;;;;;;9.75;2.08;;;22.60;99.90;;;;;;5081285;28;20012;-62
2022/03/11 00:17:19;;;;;;;11.05;1.77;;;22.70;99.90;;;;;;5100110;28;20031;-62
2022/03/11 00:19:46;;;;;;;6.65;1.50;;;22.80;99.90;;;;;;5079527;28;20028;-62
2022/03/11 00:22:14;;;;;;;6.15;0.93;;;23.00;99.90;;;;;;5081921;28;20046;-62
2022/03/11 00:24:42;;;;;;;7.43;1.65;;;23.00;99.90;;;;;;5079031;28;20033;-62
2022/03/11 00:27:09;;;;;;;8.93;1.45;;;22.50;99.90;;;;;;5079759;28;20023;-61
2022/03/11 00:29:36;;;;;;;6.45;1.10;;;22.80;99.90;;;;;;5078656;28;20017;-61
2022/03/11 00:32:04;;;;;;;4.90;0.90;;;22.90;99.90;;;;;;5078961;28;20051;-62
2022/03/11 00:34:31;;;;;;;8.60;2.05;;;22.40;99.90;;;;;;5079400;28;20056;-62
2022/03/11 00:36:58;;;;;;;4.47;0.90;;;22.00;99.90;;;;;;5083326;28;20035;-62
2022/03/11 00:39:26;;;;;;;8.65;1.08;;;21.90;99.90;;;;;;5085325;28;20017;-61
2022/03/11 00:41:53;;;;;;;7.28;0.90;;;22.10;99.90;;;;;;5090670;28;20044;-62
2022/03/11 00:44:20;;;;;;;7.22;1.13;;;22.40;99.90;;;;;;5080704;28;20033;-62
2022/03/11 00:46:48;;;;;;;7.18;1.30;;;22.40;99.90;;;;;;5078487;28;20026;-62
2022/03/11 00:49:15;;;;;;;9.15;1.20;;;22.40;99.90;;;;;;5089392;28;20084;-62
2022/03/11 00:51:42;;;;;;;6.93;0.80;;;22.80;99.90;;;;;;5078406;28;20025;-62
2022/03/11 00:54:10;;;;;;;5.43;1.48;;;23.10;99.90;;;;;;5087556;28;20028;-62
2022/03/11 00:56:37;;;;;;;10.65;1.88;;;23.40;99.90;;;;;;5090364;28;20128;-62
2022/03/11 00:59:06;;;;;;;6.10;1.00;;;23.50;99.90;;;;;;5078248;28;20024;-63
2022/03/11 01:01:33;;;;;;;8.32;1.02;;;23.50;99.90;;;;;;5085968;28;20009;-63
2022/03/11 01:04:00;;;;;;;8.40;1.65;;;23.30;99.90;;;;;;5082240;28;20035;-63
2022/03/11 01:06:28;;;;;;;7.25;0.88;;;22.40;99.90;;;;;;5085185;28;20051;-63
2022/03/11 01:08:55;;;;;;;7.22;1.17;;;22.00;99.90;;;;;;5090010;28;20012;-63
2022/03/11 01:11:22;;;;;;;6.63;1.25;;;22.20;99.90;;;;;;5085493;28;20657;-63
2022/03/11 01:13:49;;;;;;;11.80;1.88;;;22.60;99.90;;;;;;5087684;28;20043;-63
2022/03/11 01:16:17;;;;;;;11.32;2.00;;;23.00;99.90;;;;;;5081793;28;20009;-63
2022/03/11 01:18:45;;;;;;;9.60;1.02;;;23.30;99.90;;;;;;5078551;28;20029;-63
2022/03/11 01:21:13;;;;;;;7.38;1.38;;;23.10;99.90;;;;;;5082802;28;20013;-62
2022/03/11 01:23:40;;;;;;;7.72;1.10;;;22.60;99.90;;;;;;5079368;28;20001;-63
2022/03/11 01:26:08;;;;;;;7.05;1.05;;;22.80;99.90;;;;;;5084070;28;20016;-62
2022/03/11 01:28:35;;;;;;;11.73;1.30;;;23.20;99.90;;;;;;5081555;28;20044;-63
2022/03/11 01:31:03;;;;;;;6.40;0.93;;;23.30;99.90;;;;;;5080013;28;20043;-63
2022/03/11 01:33:30;;;;;;;6.90;0.88;;;23.20;99.90;;;;;;5082137;28;20020;-63
2022/03/11 01:35:57;;;;;;;6.68;1.50;;;23.40;99.90;;;;;;5077331;28;20013;-63
2022/03/11 01:38:25;;;;;;;12.18;1.52;;;23.70;99.90;;;;;;5086286;28;20039;-63
2022/03/11 01:40:52;;;;;;;4.82;0.93;;;23.40;99.90;;;;;;5089271;28;20024;-63
2022/03/11 01:43:19;;;;;;;5.55;1.02;;;23.30;99.90;;;;;;5078751;28;20017;-63
2022/03/11 01:45:47;;;;;;;6.15;1.38;;;23.70;99.90;;;;;;5077037;28;20013;-63
2022/03/11 01:48:14;;;;;;;5.10;0.77;;;23.80;99.90;;;;;;5083595;28;20044;-63
2022/03/11 01:50:43;;;;;;;7.35;1.30;;;23.80;99.90;;;;;;5085499;28;20173;-63
2022/03/11 01:53:12;;;;;;;3.45;0.80;;;23.60;99.90;;;;;;5085592;28;20017;-63
2022/03/11 01:55:43;;;;;;;7.07;0.88;;;23.80;99.90;;;;;;5085776;28;20044;-63
2022/03/11 01:58:12;;;;;;;9.05;0.82;;;24.10;99.90;;;;;;5078891;28;20033;-63
2022/03/11 02:00:40;;;;;;;5.75;0.88;;;24.40;99.90;;;;;;5079048;28;20060;-64
2022/03/11 02:03:08;;;;;;;9.75;1.40;;;24.40;99.90;;;;;;5083743;28;20055;-63
2022/03/11 02:05:36;;;;;;;6.88;1.15;;;24.50;99.90;;;;;;5084463;28;20037;-63
2022/03/11 02:08:03;;;;;;;7.85;1.13;;;24.30;99.90;;;;;;5084821;28;20028;-63
2022/03/11 02:10:30;;;;;;;5.57;0.90;;;24.00;99.90;;;;;;5083393;28;20033;-63
2022/03/11 02:12:58;;;;;;;5.97;1.02;;;23.80;99.90;;;;;;5082382;28;20108;-63
2022/03/11 02:15:26;;;;;;;5.80;1.08;;;23.70;99.90;;;;;;5080292;28;20028;-63
2022/03/11 02:17:53;;;;;;;4.95;0.90;;;23.70;99.90;;;;;;5080223;28;20024;-62
2022/03/11 02:20:20;;;;;;;7.32;1.10;;;23.60;99.90;;;;;;5079804;28;20043;-64
2022/03/11 02:22:51;;;;;;;8.20;1.30;;;23.90;99.90;;;;;;5077948;28;20021;-63
2022/03/11 02:25:19;;;;;;;12.65;1.45;;;24.10;99.90;;;;;;5085090;28;20016;-63
2022/03/11 02:27:49;;;;;;;6.00;1.02;;;24.40;99.90;;;;;;5084249;28;20042;-63
2022/03/11 02:30:21;;;;;;;8.48;0.82;;;24.50;99.90;;;;;;5080866;28;20037;-63
2022/03/11 02:32:49;;;;;;;3.53;0.57;;;24.20;99.90;;;;;;5077476;28;20017;-63
2022/03/11 02:35:17;;;;;;;6.97;0.98;;;24.10;99.90;;;;;;5088437;28;20008;-63
2022/03/11 02:37:45;;;;;;;9.45;1.08;;;23.90;99.90;;;;;;5099488;28;20013;-64
2022/03/11 02:40:12;;;;;;;6.45;0.82;;;24.00;99.90;;;;;;5092721;28;20024;-63
2022/03/11 02:42:40;;;;;;;6.75;0.80;;;23.90;99.90;;;;;;5081629;28;20013;-63
2022/03/11 02:45:08;;;;;;;7.57;1.20;;;24.00;99.90;;;;;;5087408;28;20020;-64
2022/03/11 02:47:36;;;;;;;8.07;1.08;;;24.30;99.90;;;;;;5084443;28;20024;-64
2022/03/11 02:50:03;;;;;;;12.07;1.27;;;24.10;99.90;;;;;;5080699;28;20049;-63
2022/03/11 02:52:31;;;;;;;7.60;1.50;;;23.70;99.90;;;;;;5080361;28;20120;-63
2022/03/11 02:54:59;;;;;;;6.88;0.80;;;23.30;99.90;;;;;;5093321;28;20047;-63
2022/03/11 02:57:26;;;;;;;10.40;0.98;;;23.40;99.90;;;;;;5093908;28;20013;-64
2022/03/11 02:59:57;;;;;;;4.30;0.80;;;23.70;99.90;;;;;;5083647;28;20071;-63
2022/03/11 03:02:24;;;;;;;6.97;1.00;;;23.80;99.90;;;;;;5081501;28;20013;-63
2022/03/11 03:04:51;;;;;;;6.82;1.35;;;23.80;99.90;;;;;;5082921;28;20009;-64
2022/03/11 03:07:21;;;;;;;6.57;1.45;;;23.90;99.90;;;;;;5086300;28;20017;-63
2022/03/11 03:09:49;;;;;;;5.80;1.00;;;23.80;99.90;;;;;;5085933;28;20028;-63
2022/03/11 03:12:16;;;;;;;10.75;1.48;;;24.00;99.90;;;;;;5084520;28;20036;-64
2022/03/11 03:14:43;;;;;;;6.57;1.23;;;23.90;99.90;;;;;;5087553;28;20028;-63
2022/03/11 03:17:10;;;;;;;8.63;1.20;;;23.80;99.90;;;;;;5086786;28;20009;-63
2022/03/11 03:19:38;;;;;;;8.98;1.17;;;23.80;99.90;;;;;;5085263;28;20025;-64
2022/03/11 03:22:05;;;;;;;8.93;1.35;;;23.90;99.90;;;;;;5086467;28;20004;-63
2022/03/11 03:24:32;;;;;;;9.27;1.77;;;23.90;99.90;;;;;;5084195;28;20033;-62
2022/03/11 03:27:00;;;;;;;11.38;1.33;;;23.90;99.90;;;;;;5082752;28;20009;-63
2022/03/11 03:29:27;;;;;;;7.90;1.63;;;23.60;99.90;;;;;;5084625;28;20021;-62
2022/03/11 03:31:58;;;;;;;6.40;0.90;;;23.60;99.90;;;;;;5084551;28;20725;-63
2022/03/11 03:34:31;;;;;;;8.38;1.25;;;23.50;99.90;;;;;;5085199;28;20044;-63
2022/03/11 03:37:00;;;;;;;5.57;0.95;;;23.20;99.90;;;;;;5087951;28;20016;-63
2022/03/11 03:39:28;;;;;;;7.60;0.95;;;23.20;99.90;;;;;;5082299;28;20024;-63
2022/03/11 03:41:57;;;;;;;6.18;0.85;;;23.20;99.90;;;;;;5091473;28;20005;-62
2022/03/11 03:44:24;;;;;;;7.15;1.08;;;23.30;99.90;;;;;;5098162;28;20143;-63
2022/03/11 03:46:51;;;;;;;5.80;0.93;;;23.40;99.90;;;;;;5089570;28;20028;-63
2022/03/11 03:49:19;;;;;;;7.03;0.70;;;23.00;99.90;;;;;;5094000;28;20363;-64
2022/03/11 03:51:47;;;;;;;7.78;1.00;;;23.10;99.90;;;;;;5082511;28;20013;-63
2022/03/11 03:54:16;;;;;;;8.95;0.70;;;22.90;99.90;;;;;;5091981;28;20073;-62
2022/03/11 03:56:45;;;;;;;3.20;0.63;;;22.90;99.90;;;;;;5087536;28;20056;-62
2022/03/11 03:59:13;;;;;;;8.63;1.10;;;22.70;99.90;;;;;;5085830;28;20076;-62
2022/03/11 04:01:42;;;;;;;5.47;0.77;;;22.60;99.90;;;;;;5080287;28;20021;-62
2022/03/11 04:04:13;;;;;;;5.00;0.85;;;22.50;99.90;;;;;;5084435;28;20028;-62
2022/03/11 04:06:42;;;;;;;4.90;1.15;;;22.60;99.90;;;;;;5082107;28;20017;-62
2022/03/11 04:09:10;;;;;;;7.43;0.88;;;22.90;99.90;;;;;;5080239;28;20017;-62
2022/03/11 04:11:37;;;;;;;4.93;0.52;;;22.90;99.90;;;;;;5080600;28;20028;-63
2022/03/11 04:14:05;;;;;;;8.93;1.02;;;22.60;99.90;;;;;;5082556;28;20042;-62
2022/03/11 04:16:32;;;;;;;7.82;0.82;;;22.50;99.90;;;;;;5082950;28;20021;-62
2022/03/11 04:18:59;;;;;;;5.97;1.00;;;22.20;99.90;;;;;;5083226;28;20025;-62
2022/03/11 04:21:27;;;;;;;4.47;0.40;;;22.20;99.90;;;;;;5083748;28;20020;-62
2022/03/11 04:23:54;;;;;;;7.63;0.70;;;22.20;99.90;;;;;;5084188;28;20126;-63
2022/03/11 04:26:21;;;;;;;7.30;0.70;;;22.00;99.90;;;;;;5080839;28;20025;-63
2022/03/11 04:28:49;;;;;;;5.78;1.23;;;22.00;99.90;;;;;;5082667;28;20051;-63
2022/03/11 04:31:16;;;;;;;8.40;0.50;;;21.80;99.90;;;;;;5083943;28;20056;-64
2022/03/11 04:33:44;;;;;;;6.65;0.82;;;21.80;99.90;;;;;;5083307;28;20101;-64
2022/03/11 04:36:12;;;;;;;8.68;1.10;;;21.70;99.90;;;;;;5082670;28;20064;-64
2022/03/11 04:38:39;;;;;;;6.13;0.90;;;21.70;99.90;;;;;;5085133;28;20028;-64
2022/03/11 04:41:07;;;;;;;5.78;0.93;;;21.70;99.90;;;;;;5094368;28;20016;-62
2022/03/11 04:43:34;;;;;;;4.97;1.00;;;21.70;99.90;;;;;;5081799;28;20012;-63
2022/03/11 04:46:01;;;;;;;6.88;1.33;;;21.70;99.90;;;;;;5084135;28;20028;-62
2022/03/11 04:48:29;;;;;;;5.47;0.70;;;21.70;99.90;;;;;;5086067;28;20013;-63
2022/03/11 04:50:56;;;;;;;6.15;1.27;;;21.70;99.90;;;;;;5079788;28;20056;-64
2022/03/11 04:53:23;;;;;;;6.03;1.48;;;21.70;99.90;;;;;;5085017;28;20048;-64
2022/03/11 04:55:50;;;;;;;6.35;0.73;;;21.80;99.90;;;;;;5088391;28;20047;-64
2022/03/11 04:58:18;;;;;;;3.95;0.80;;;21.80;99.90;;;;;;5081646;28;20009;-64
2022/03/11 05:00:45;;;;;;;6.13;0.98;;;21.70;99.90;;;;;;5079412;28;20009;-63
2022/03/11 05:03:12;;;;;;;3.47;0.60;;;21.70;99.90;;;;;;5078530;28;20005;-63
2022/03/11 05:05:40;;;;;;;5.40;0.77;;;21.60;99.90;;;;;;5081658;28;20044;-63
2022/03/11 05:08:07;;;;;;;4.80;0.47;;;21.70;99.90;;;;;;5078987;28;20017;-63
2022/03/11 05:10:34;;;;;;;4.88;0.52;;;21.60;99.90;;;;;;5080310;28;20013;-64
2022/03/11 05:13:02;;;;;;;4.15;0.80;;;21.60;99.90;;;;;;5083143;28;20032;-64
2022/03/11 05:15:29;;;;;;;14.73;1.30;;;21.60;99.90;;;;;;5084463;28;20009;-63
2022/03/11 05:17:56;;;;;;;3.50;0.98;;;21.80;99.90;;;;;;5086980;28;20015;-63
2022/03/11 05:20:24;;;;;;;3.50;0.60;;;21.90;99.90;;;;;;5090559;28;20012;-63
2022/03/11 05:22:51;;;;;;;4.65;0.93;;;22.10;99.90;;;;;;5088849;28;20017;-63
2022/03/11 05:25:18;;;;;;;9.23;0.70;;;22.30;99.90;;;;;;5081544;28;20013;-63
2022/03/11 05:27:46;;;;;;;4.97;1.23;;;22.20;99.90;;;;;;5093618;28;20021;-64
2022/03/11 05:30:13;;;;;;;9.50;1.77;;;22.20;99.90;;;;;;5080184;28;20008;-64
2022/03/11 05:32:46;;;;;;;4.07;0.50;;;22.10;99.90;;;;;;5091380;28;20025;-64
2022/03/11 05:35:15;;;;;;;5.80;0.90;;;22.00;99.90;;;;;;5077787;28;20058;-64
2022/03/11 05:37:44;;;;;;;3.10;0.60;;;21.90;99.90;;;;;;5078948;28;20048;-64
2022/03/11 05:40:11;;;;;;;6.57;0.70;;;21.80;99.90;;;;;;5089807;28;20040;-63
2022/03/11 05:42:38;;;;;;;5.30;0.98;;;21.80;99.90;;;;;;5080432;28;20017;-63
2022/03/11 05:45:07;;;;;;;4.68;0.85;;;21.80;99.90;;;;;;5078732;28;20023;-64
2022/03/11 05:47:35;;;;;;;5.43;0.77;;;21.80;99.90;;;;;;5095536;28;20040;-64
2022/03/11 05:50:03;;;;;;;16.83;1.65;;;21.80;99.90;;;;;;5078850;28;20040;-64
2022/03/11 05:52:30;;;;;;;6.88;1.08;;;21.70;99.90;;;;;;5088300;28;20111;-64
2022/03/11 05:54:57;;;;;;;11.65;0.90;;;21.70;99.90;;;;;;5078615;28;20013;-63
2022/03/11 05:57:25;;;;;;;10.88;1.35;;;22.00;99.90;;;;;;5094020;28;20036;-63
2022/03/11 05:59:52;;;;;;;3.72;0.50;;;22.20;99.90;;;;;;5083123;28;20038;-64
2022/03/11 06:02:19;;;;;;;6.95;1.00;;;22.30;99.90;;;;;;5082917;28;20021;-63
2022/03/11 06:04:47;;;;;;;9.13;1.58;;;22.40;99.90;;;;;;5078720;28;20013;-63
2022/03/11 06:07:14;;;;;;;6.88;1.17;;;22.40;99.90;;;;;;5084342;28;20073;-63
2022/03/11 06:09:41;;;;;;;5.95;0.82;;;22.50;99.90;;;;;;5079350;28;20041;-63
2022/03/11 06:12:09;;;;;;;3.88;0.63;;;22.60;99.90;;;;;;5079611;28;20051;-63
2022/03/11 06:14:36;;;;;;;5.75;0.75;;;22.70;99.90;;;;;;5078983;28;20024;-63
2022/03/11 06:17:04;;;;;;;5.97;0.60;;;22.50;99.90;;;;;;5088043;28;20005;-63
2022/03/11 06:19:31;;;;;;;4.35;0.52;;;22.70;99.90;;;;;;5078242;28;20013;-62
2022/03/11 06:21:59;;;;;;;9.90;1.88;;;22.70;99.90;;;;;;5086609;28;20017;-62
2022/03/11 06:24:27;;;;;;;5.55;1.25;;;22.60;99.90;;;;;;5078528;28;20201;-63
2022/03/11 06:26:54;;;;;;;4.28;1.70;;;22.50;99.90;;;;;;5080907;28;20005;-63
2022/03/11 06:29:21;;;;;;;10.38;2.42;;;22.40;99.90;;;;;;5084300;28;20150;-63
2022/03/11 06:31:49;;;;;;;5.45;1.17;;;22.30;99.90;;;;;;5079770;28;20032;-63
2022/03/11 06:34:16;;;;;;;4.05;0.50;;;22.10;99.90;;;;;;5096118;28;20012;-62
2022/03/11 06:36:43;;;;;;;4.68;0.70;;;21.80;99.90;;;;;;5086062;28;20106;-62
2022/03/11 06:39:13;;;;;;;5.72;0.60;;;21.80;99.90;;;;;;5075236;28;20064;-65
2022/03/11 06:41:42;;;;;;;5.30;0.85;;;21.60;99.90;;;;;;5069511;28;20024;-65
2022/03/11 06:44:09;;;;;;;12.25;1.40;;;21.60;99.90;;;;;;5067037;28;20025;-65
2022/03/11 06:46:37;;;;;;;6.57;1.00;;;21.60;99.90;;;;;;5064093;28;20016;-66
2022/03/11 06:49:05;;;;;;;6.80;1.02;;;21.60;99.90;;;;;;5064261;28;20040;-65
2022/03/11 06:51:33;;;;;;;7.00;1.00;;;21.60;99.90;;;;;;5060736;28;20083;-66
2022/03/11 06:54:00;;;;;;;5.53;0.80;;;21.70;99.90;;;;;;5060525;28;20079;-66
2022/03/11 06:56:27;;;;;;;6.03;0.90;;;21.60;99.90;;;;;;5067526;28;20044;-66
2022/03/11 06:58:55;;;;;;;5.18;0.90;;;21.60;99.90;;;;;;5066862;28;20055;-66
2022/03/11 07:01:24;;;;;;;9.70;0.60;;;21.60;99.90;;;;;;5063645;28;20068;-66
2022/03/11 07:03:51;;;;;;;7.35;1.35;;;21.40;99.90;;;;;;5063352;28;20021;-66
2022/03/11 07:06:19;;;;;;;3.58;0.77;;;21.50;99.90;;;;;;5067312;28;20021;-66
2022/03/11 07:08:46;;;;;;;5.57;0.70;;;21.50;99.90;;;;;;5066924;28;20040;-66
2022/03/11 07:11:13;;;;;;;5.78;0.70;;;21.50;99.90;;;;;;5063912;28;20013;-66
2022/03/11 07:13:41;;;;;;;13.60;1.77;;;21.40;99.90;;;;;;5061893;28;20029;-66
2022/03/11 07:16:10;;;;;;;4.55;0.85;;;21.40;99.90;;;;;;5065210;28;20040;-66
2022/03/11 07:18:37;;;;;;;4.70;0.82;;;21.40;99.90;;;;;;5071632;28;20070;-66
2022/03/11 07:21:04;;;;;;;5.72;0.50;;;21.20;99.90;;;;;;5068028;28;20503;-66
2022/03/11 07:23:32;;;;;;;5.43;0.68;;;21.10;99.90;;;;;;5063904;28;20028;-65
2022/03/11 07:25:59;;;;;;;6.03;1.00;;;21.10;99.90;;;;;;5070867;28;20023;-65
2022/03/11 07:28:27;;;;;;;5.18;0.93;;;21.10;99.90;;;;;;5067473;28;20117;-65
2022/03/11 07:30:57;;;;;;;6.72;1.00;;;21.20;99.90;;;;;;5069894;28;20025;-65
2022/03/11 07:33:24;;;;;;;9.13;1.10;;;21.20;99.90;;;;;;5067232;28;20043;-65
2022/03/11 07:35:51;;;;;;;6.05;0.75;;;21.10;99.90;;;;;;5064991;28;20029;-65
2022/03/11 07:38:19;;;;;;;3.08;0.50;;;21.20;99.90;;;;;;5067439;28;20036;-66
2022/03/11 07:40:46;;;;;;;4.95;0.88;;;21.10;99.90;;;;;;5066408;28;20033;-65
2022/03/11 07:43:13;;;;;;;7.90;1.58;;;21.00;99.90;;;;;;5062130;28;20039;-65
2022/03/11 07:45:41;;;;;;;4.82;0.60;;;21.00;99.90;;;;;;5067060;28;20024;-65
2022/03/11 07:48:08;;;;;;;7.65;1.38;;;21.10;99.90;;;;;;5085123;28;20024;-64
2022/03/11 07:50:35;;;;;;;4.63;0.80;;;21.00;99.90;;;;;;5088095;28;20036;-65
2022/03/11 07:53:02;;;;;;;3.65;0.80;;;21.00;99.90;;;;;;5065787;28;20032;-65
2022/03/11 07:55:30;;;;;;;5.00;1.20;;;20.90;99.90;;;;;;5067450;28;20519;-65
2022/03/11 07:57:57;;;;;;;5.25;1.17;;;20.90;99.90;;;;;;5088475;28;20452;-65
2022/03/11 08:00:24;;;;;;;3.92;0.90;;;20.90;99.90;;;;;;5078614;28;20020;-65
2022/03/11 08:02:52;;;;;;;4.20;0.93;;;20.80;99.90;;;;;;5083277;28;20062;-65
2022/03/11 08:05:19;;;;;;;5.55;0.95;;;20.80;99.90;;;;;;5091623;28;20024;-65
2022/03/11 08:07:50;;;;;;;3.03;0.60;;;20.80;99.90;;;;;;5076112;28;20050;-65
2022/03/11 08:10:18;;;;;;;8.30;1.45;;;20.80;99.90;;;;;;5070967;28;20029;-65
2022/03/11 08:12:46;;;;;;;7.40;1.08;;;20.80;99.90;;;;;;5082713;28;20051;-65
2022/03/11 08:15:13;;;;;;;6.18;0.90;;;20.80;99.90;;;;;;5079560;28;20044;-65
2022/03/11 08:17:41;;;;;;;3.80;0.85;;;20.80;99.90;;;;;;5080800;28;20032;-65
2022/03/11 08:20:10;;;;;;;4.25;1.40;;;20.80;99.90;;;;;;5074507;28;20114;-65
2022/03/11 08:22:38;;;;;;;6.78;1.67;;;20.80;99.90;;;;;;5074895;28;20018;-65
2022/03/11 08:25:08;;;;;;;7.38;1.55;;;20.80;99.90;;;;;;5094239;28;20028;-65
2022/03/11 08:27:35;;;;;;;4.57;1.02;;;20.70;99.90;;;;;;5066257;28;20033;-65
2022/03/11 08:30:04;;;;;;;4.07;0.40;;;20.70;99.90;;;;;;5071382;28;20031;-65
2022/03/11 08:32:31;;;;;;;8.98;2.00;;;20.60;99.90;;;;;;5059404;28;20048;-66
2022/03/11 08:34:59;;;;;;;6.72;1.27;;;20.60;99.90;;;;;;5068479;28;20029;-65
2022/03/11 08:37:27;;;;;;;4.13;0.80;;;20.60;99.90;;;;;;5055398;28;20051;-65
2022/03/11 08:39:54;;;;;;;7.15;1.30;;;20.60;99.90;;;;;;5068637;28;20032;-66
2022/03/11 08:42:22;;;;;;;6.95;1.20;;;20.70;99.90;;;;;;5060310;28;20028;-65
2022/03/11 08:44:49;;;;;;;4.93;1.10;;;20.70;99.90;;;;;;5084676;28;20020;-66
2022/03/11 08:47:16;;;;;;;3.72;1.00;;;20.70;99.90;;;;;;5062544;28;20087;-66
2022/03/11 08:49:44;;;;;;;6.85;0.90;;;20.70;99.90;;;;;;5084617;28;20131;-66
2022/03/11 08:52:11;;;;;;;5.47;1.00;;;20.80;99.90;;;;;;5083184;28;20022;-66
2022/03/11 08:54:38;;;;;;;5.65;1.23;;;20.80;99.90;;;;;;5091661;28;20028;-66
2022/03/11 08:57:05;;;;;;;6.28;1.23;;;20.80;99.90;;;;;;5060664;28;20796;-66
2022/03/11 08:59:33;;;;;;;10.32;1.67;;;20.80;99.90;;;;;;5090723;28;20028;-66
2022/03/11 09:02:01;;;;;;;5.90;1.52;;;20.80;99.90;;;;;;5071218;28;20020;-66
2022/03/11 09:04:29;;;;;;;6.43;1.08;;;20.80;99.90;;;;;;5083330;28;20121;-66
2022/03/11 09:06:56;;;;;;;7.25;1.33;;;20.80;99.90;;;;;;5077025;28;20049;-66
2022/03/11 09:09:23;;;;;;;5.22;1.02;;;20.70;99.90;;;;;;5061549;28;20052;-66
2022/03/11 09:11:50;;;;;;;8.40;1.67;;;20.70;99.90;;;;;;5089200;28;20021;-65
2022/03/11 09:14:18;;;;;;;7.97;1.20;;;20.70;99.90;;;;;;5074903;28;20058;-66
2022/03/11 09:16:45;;;;;;;7.97;0.80;;;20.70;99.90;;;;;;5069710;28;20548;-66
2022/03/11 09:19:13;;;;;;;6.57;1.08;;;20.70;99.90;;;;;;5091107;28;20031;-66
2022/03/11 09:21:41;;;;;;;19.33;1.80;;;20.70;99.90;;;;;;5069572;28;20024;-66
2022/03/11 09:24:08;;;;;;;5.28;0.82;;;20.70;99.90;;;;;;5076513;28;20032;-66
2022/03/11 09:26:36;;;;;;;3.97;0.80;;;20.70;99.90;;;;;;5072457;28;20044;-66
2022/03/11 09:29:03;;;;;;;4.82;1.17;;;20.70;99.90;;;;;;5067086;28;20029;-66
2022/03/11 09:31:31;;;;;;;4.93;0.70;;;20.70;99.90;;;;;;5064632;28;20028;-66
2022/03/11 09:33:58;;;;;;;5.05;0.75;;;20.70;99.90;;;;;;5085496;28;20032;-66
2022/03/11 09:36:25;;;;;;;6.25;0.70;;;20.60;99.90;;;;;;5076140;28;20024;-66
2022/03/11 09:38:53;;;;;;;3.70;0.60;;;20.60;99.90;;;;;;5088413;28;20185;-66
2022/03/11 09:41:21;;;;;;;6.10;0.95;;;20.60;99.90;;;;;;5071780;28;20021;-66
2022/03/11 09:43:48;;;;;;;4.50;0.77;;;20.60;99.90;;;;;;5074810;28;20679;-66
2022/03/11 09:46:16;;;;;;;7.28;0.98;;;20.60;99.90;;;;;;5065805;28;20036;-66
2022/03/11 09:48:43;;;;;;;3.50;0.40;;;20.50;99.90;;;;;;5064530;28;20044;-66
2022/03/11 09:51:12;;;;;;;2.88;0.73;;;20.50;99.90;;;;;;5071820;28;20044;-66
2022/03/11 09:53:42;;;;;;;6.00;1.25;;;20.50;99.90;;;;;;5089555;28;20036;-66
2022/03/11 09:56:09;;;;;;;3.90;1.05;;;20.60;99.90;;;;;;5077286;28;20038;-66
2022/03/11 09:58:37;;;;;;;3.83;0.85;;;20.60;99.90;;;;;;5081191;28;20020;-66
2022/03/11 10:01:06;;;;;;;5.05;1.05;;;20.60;99.90;;;;;;5075418;28;20358;-66
2022/03/11 10:03:33;;;;;;;4.85;0.73;;;20.60;99.90;;;;;;5082122;28;20491;-66
2022/03/11 10:06:01;;;;;;;7.25;1.00;;;20.50;99.90;;;;;;5080133;28;20479;-66
2022/03/11 10:08:40;;;;;;;7.60;1.20;;;20.60;99.90;;;;;;5074116;28;20032;-66
2022/03/11 10:11:26;;;;;;;5.60;0.70;;;20.60;99.90;;;;;;5070254;28;20025;-66
2022/03/11 10:14:03;;;;;;;4.50;0.90;;;20.60;99.90;;;;;;5070858;28;20043;-66
2022/03/11 10:16:31;;;;;;;7.05;1.02;;;20.60;99.90;;;;;;5077092;28;20039;-66
2022/03/11 10:19:07;;;;;;;9.25;1.40;;;20.60;99.90;;;;;;5077192;28;20104;-66
2022/03/11 10:21:43;;;;;;;5.32;1.17;;;20.60;99.90;;;;;;5054985;28;20075;-66
2022/03/11 10:24:16;;;;;;;6.53;1.23;;;20.60;99.90;;;;;;5075539;28;20464;-66
2022/03/11 10:26:49;;;;;;;7.17;0.83;;;20.60;99.90;;;;;;5084836;28;20038;-66
2022/03/11 10:29:18;;;;;;;5.00;0.63;;;20.60;99.90;;;;;;5077288;28;20029;-66
2022/03/11 10:31:47;;;;;;;8.80;0.95;;;20.60;99.90;;;;;;5080260;28;20493;-66
2022/03/11 10:34:27;;;;;;;9.77;1.55;;;20.60;99.90;;;;;;5084138;28;20048;-66
2022/03/11 10:36:59;;;;;;;4.78;1.00;;;20.60;99.90;;;;;;5066997;28;20036;-66
2022/03/11 10:39:29;;;;;;;6.15;0.90;;;20.60;99.90;;;;;;5089822;28;20510;-66
2022/03/11 10:42:13;;;;;;;7.47;1.23;;;20.60;99.90;;;;;;5072770;28;21037;-66
2022/03/11 10:45:00;;;;;;;5.65;0.60;;;20.50;99.90;;;;;;5080342;28;20506;-66
2022/03/11 10:47:38;;;;;;;8.30;0.55;;;20.50;99.90;;;;;;5069019;28;20099;-66
2022/03/11 10:50:13;;;;;;;5.28;1.05;;;20.50;99.90;;;;;;5071523;28;20404;-66
2022/03/11 10:52:44;;;;;;;7.88;1.40;;;20.50;99.90;;;;;;5053432;28;20025;-65
2022/03/11 10:55:32;;;;;;;5.60;0.80;;;20.50;99.90;;;;;;5072998;28;20516;-66
2022/03/11 10:58:03;;;;;;;5.15;0.93;;;20.50;99.90;;;;;;5068594;28;20043;-66
2022/03/11 11:00:33;;;;;;;7.28;0.40;;;20.50;99.90;;;;;;5092756;28;20024;-66
2022/03/11 11:03:02;;;;;;;7.90;1.08;;;20.50;99.90;;;;;;5064704;28;20029;-66
2022/03/11 11:05:31;;;;;;;7.30;0.75;;;20.50;99.90;;;;;;5064488;28;20022;-65
2022/03/11 11:07:59;;;;;;;6.88;0.68;;;20.50;99.90;;;;;;5075951;28;20020;-66
2022/03/11 11:10:30;;;;;;;3.55;0.80;;;20.60;99.90;;;;;;5064612;28;20465;-66
2022/03/11 11:12:57;;;;;;;5.70;0.73;;;20.60;99.90;;;;;;5071121;28;20052;-66
2022/03/11 11:15:25;;;;;;;5.47;0.50;;;20.60;99.90;;;;;;5092577;28;20028;-66
2022/03/11 11:17:53;;;;;;;6.45;0.70;;;20.50;99.90;;;;;;5068582;28;20024;-66
2022/03/11 11:20:23;;;;;;;5.20;1.05;;;20.50;99.90;;;;;;5058904;28;20021;-66
2022/03/11 11:22:53;;;;;;;5.75;1.30;;;20.50;99.90;;;;;;5065269;28;20060;-66
2022/03/11 11:25:24;;;;;;;7.32;0.77;;;20.50;99.90;;;;;;5066653;28;20013;-66
2022/03/11 11:27:57;;;;;;;9.15;1.55;;;20.40;99.90;;;;;;5055812;28;20415;-66
2022/03/11 11:30:25;;;;;;;3.10;0.60;;;20.40;99.90;;;;;;5059528;28;20055;-66
2022/03/11 11:32:55;;;;;;;2.42;0.65;;;20.30;99.90;;;;;;5062941;28;20762;-66
2022/03/11 11:35:28;;;;;;;4.30;0.95;;;20.30;99.90;;;;;;5061695;28;20162;-66
2022/03/11 11:37:58;;;;;;;8.23;1.30;;;20.30;99.90;;;;;;5055886;28;20036;-66
2022/03/11 11:40:44;;;;;;;4.40;0.95;;;20.40;99.90;;;;;;5066167;28;20013;-66
2022/03/11 11:43:14;;;;;;;5.18;1.08;;;20.30;99.90;;;;;;5057675;28;20033;-66
2022/03/11 11:45:47;;;;;;;6.40;1.77;;;20.20;99.90;;;;;;5076800;28;20377;-67
2022/03/11 11:48:41;;;;;;;4.43;1.08;;;20.20;99.90;;;;;;5075309;28;20020;-66
2022/03/11 11:51:13;;;;;;;5.68;1.17;;;20.20;99.90;;;;;;5062737;28;20060;-66
2022/03/11 11:53:55;;;;;;;3.83;0.77;;;20.10;99.90;;;;;;5059665;28;20025;-65
2022/03/11 11:56:37;;;;;;;5.57;0.80;;;20.10;99.90;;;;;;5061384;28;20381;-66
2022/03/11 11:59:17;;;;;;;2.88;0.60;;;20.10;99.90;;;;;;5066489;28;20635;-66
2022/03/11 12:01:57;;;;;;;5.32;1.20;;;20.00;99.90;;;;;;5072281;28;20035;-65
2022/03/11 12:04:30;;;;;;;3.35;0.52;;;20.00;99.90;;;;;;5065806;28;20017;-66
2022/03/11 12:06:59;;;;;;;8.57;0.85;;;20.00;99.90;;;;;;5069519;28;20055;-65
2022/03/11 12:10:04;;;;;;;6.38;0.70;;;20.00;99.90;;;;;;5068412;28;20037;-66
2022/03/11 12:12:34;;;;;;;6.25;0.70;;;20.00;99.90;;;;;;5063343;28;20032;-66
2022/03/11 12:15:04;;;;;;;2.80;0.47;;;20.00;99.90;;;;;;5067962;28;20033;-65
2022/03/11 12:17:43;;;;;;;3.63;0.40;;;20.10;99.90;;;;;;5060612;28;20084;-66
2022/03/11 12:20:26;;;;;;;4.55;0.40;;;20.10;99.90;;;;;;5062599;28;20013;-66
2022/03/11 12:22:57;;;;;;;4.57;0.55;;;20.10;99.90;;;;;;5061825;28;20040;-66
2022/03/11 12:25:27;;;;;;;3.05;0.50;;;20.10;99.90;;;;;;5072444;28;20023;-66
2022/03/11 12:28:10;;;;;;;5.30;0.52;;;20.10;99.90;;;;;;5078533;28;20388;-66
2022/03/11 12:30:43;;;;;;;5.88;0.90;;;20.10;99.90;;;;;;5066414;28;20397;-66
2022/03/11 12:33:37;;;;;;;4.22;0.50;;;20.00;99.90;;;;;;5070117;28;20029;-66
2022/03/11 12:36:05;;;;;;;;;;;20.00;99.90;;;;;;5070560;28;20028;-66
2022/03/11 12:38:34;;;;;;;4.97;0.70;;;20.10;99.90;;;;;;5062853;28;20354;-66
2022/03/11 12:41:17;;;;;;;5.50;0.50;;;20.10;99.90;;;;;;5062740;28;20032;-65
2022/03/11 12:43:45;;;;;;;3.67;0.40;;;20.10;99.90;;;;;;5064290;28;20033;-65
2022/03/11 12:46:13;;;;;;;5.05;0.75;;;20.10;99.90;;;;;;5065133;28;20037;-66
2022/03/11 12:48:43;;;;;;;5.13;0.50;;;20.10;99.90;;;;;;5069282;28;20025;-66
2022/03/11 12:51:19;;;;;;;7.85;1.13;;;20.10;99.90;;;;;;5064801;28;20049;-66
2022/03/11 12:53:49;;;;;;;4.47;0.70;;;20.10;99.90;;;;;;5075137;28;20028;-66